ARG1741 SUMU-SABE
Flight info
| Callsign | ARG1741 |
|---|---|
| Flight time | 0h 38m |
| Altitude | 22000 |
| Route | DAGUS UGIMI UGIM8Q |
| Aircraft | B737/M-V/N |
Departure
| Time | 2026-04-21 22:11 |
|---|---|
| Airport | Carrasco General Cesáreo L. Berisso International Airport (SUMU) |
Arrival
| Time | 2026-04-21 22:49 |
|---|---|
| Airport | Aeroparque Jorge Newbery (SABE) |
| Time | Latitude | Longitude | Altitude | Speed | Heading |
|---|---|---|---|---|---|
| 2026-04-21 21:48 | -34.83816 | -56.02132 | 114 ft | 0 kts | 144° |
| 2026-04-21 21:57 | -34.83808 | -56.02140 | 114 ft | 2 kts | 152° |
| 2026-04-21 21:58 | -34.83790 | -56.02144 | 114 ft | 3 kts | 186° |
| 2026-04-21 21:58 | -34.83772 | -56.02135 | 114 ft | 3 kts | 216° |
| 2026-04-21 21:58 | -34.83763 | -56.02126 | 114 ft | 0 kts | 228° |
| 2026-04-21 21:59 | -34.83765 | -56.02133 | 114 ft | 2 kts | 265° |
| 2026-04-21 22:00 | -34.83766 | -56.02169 | 114 ft | 6 kts | 266° |
| 2026-04-21 22:00 | -34.83797 | -56.02221 | 114 ft | 9 kts | 192° |
| 2026-04-21 22:00 | -34.83857 | -56.02229 | 114 ft | 9 kts | 185° |
| 2026-04-21 22:00 | -34.83918 | -56.02233 | 114 ft | 6 kts | 183° |
| 2026-04-21 22:01 | -34.83935 | -56.02238 | 114 ft | 5 kts | 210° |
| 2026-04-21 22:01 | -34.83950 | -56.02274 | 114 ft | 5 kts | 266° |
| 2026-04-21 22:01 | -34.83950 | -56.02324 | 114 ft | 6 kts | 272° |
| 2026-04-21 22:01 | -34.83948 | -56.02382 | 114 ft | 7 kts | 271° |
| 2026-04-21 22:02 | -34.83947 | -56.02448 | 114 ft | 8 kts | 271° |
| 2026-04-21 22:02 | -34.83946 | -56.02521 | 114 ft | 9 kts | 270° |
| 2026-04-21 22:02 | -34.83945 | -56.02603 | 114 ft | 10 kts | 270° |
| 2026-04-21 22:02 | -34.83961 | -56.02686 | 114 ft | 10 kts | 241° |
| 2026-04-21 22:03 | -34.83986 | -56.02761 | 114 ft | 9 kts | 235° |
| 2026-04-21 22:03 | -34.84019 | -56.02832 | 114 ft | 10 kts | 256° |
| 2026-04-21 22:03 | -34.84019 | -56.02916 | 114 ft | 10 kts | 270° |
| 2026-04-21 22:03 | -34.84017 | -56.03008 | 114 ft | 11 kts | 270° |
| 2026-04-21 22:04 | -34.84026 | -56.03105 | 114 ft | 11 kts | 237° |
| 2026-04-21 22:04 | -34.84063 | -56.03185 | 114 ft | 11 kts | 242° |
| 2026-04-21 22:04 | -34.84103 | -56.03275 | 114 ft | 12 kts | 242° |
| 2026-04-21 22:04 | -34.84145 | -56.03370 | 114 ft | 13 kts | 242° |
| 2026-04-21 22:05 | -34.84175 | -56.03440 | 114 ft | 0 kts | 242° |
| 2026-04-21 22:09 | -34.84176 | -56.03441 | 114 ft | 0 kts | 242° |
| 2026-04-21 22:09 | -34.84186 | -56.03464 | 114 ft | 6 kts | 242° |
| 2026-04-21 22:09 | -34.84213 | -56.03529 | 114 ft | 11 kts | 244° |
| 2026-04-21 22:09 | -34.84239 | -56.03633 | 114 ft | 14 kts | 280° |
| 2026-04-21 22:10 | -34.84197 | -56.03658 | 114 ft | 7 kts | 43° |
| 2026-04-21 22:10 | -34.84124 | -56.03542 | 114 ft | 53 kts | 53° |
| 2026-04-21 22:10 | -34.83628 | -56.02727 | 114 ft | 184 kts | 53° |
| 2026-04-21 22:10 | -34.82652 | -56.01122 | 413 ft | 280 kts | 53° |
| 2026-04-21 22:11 | -34.81381 | -55.99033 | 1974 ft | 315 kts | 53° |
| 2026-04-21 22:11 | -34.80100 | -55.96926 | 3899 ft | 308 kts | 53° |
| 2026-04-21 22:11 | -34.78823 | -55.94810 | 5510 ft | 317 kts | 52° |
| 2026-04-21 22:11 | -34.77486 | -55.92558 | 6817 ft | 334 kts | 52° |
| 2026-04-21 22:12 | -34.76122 | -55.90234 | 7826 ft | 340 kts | 52° |
| 2026-04-21 22:12 | -34.74584 | -55.88019 | 8738 ft | 341 kts | 42° |
| 2026-04-21 22:12 | -34.72742 | -55.86307 | 10001 ft | 331 kts | 27° |
| 2026-04-21 22:12 | -34.70579 | -55.85363 | 11469 ft | 332 kts | 8° |
| 2026-04-21 22:13 | -34.68245 | -55.85272 | 12605 ft | 346 kts | 351° |
| 2026-04-21 22:13 | -34.65890 | -55.86061 | 13408 ft | 352 kts | 335° |
| 2026-04-21 22:13 | -34.63785 | -55.87603 | 13975 ft | 354 kts | 319° |
| 2026-04-21 22:13 | -34.62096 | -55.89769 | 14615 ft | 352 kts | 305° |
| 2026-04-21 22:14 | -34.61000 | -55.92367 | 15520 ft | 348 kts | 287° |
| 2026-04-21 22:14 | -34.60935 | -55.95311 | 16283 ft | 354 kts | 261° |
| 2026-04-21 22:14 | -34.61757 | -55.98163 | 17073 ft | 361 kts | 248° |
| 2026-04-21 22:14 | -34.62901 | -56.00854 | 17828 ft | 364 kts | 243° |
| 2026-04-21 22:15 | -34.64210 | -56.03545 | 18593 ft | 365 kts | 240° |
| 2026-04-21 22:15 | -34.65565 | -56.06198 | 19291 ft | 378 kts | 240° |
| 2026-04-21 22:15 | -34.66987 | -56.08943 | 20003 ft | 385 kts | 239° |
| 2026-04-21 22:15 | -34.68414 | -56.11699 | 20571 ft | 390 kts | 240° |
| 2026-04-21 22:16 | -34.69863 | -56.14520 | 20978 ft | 394 kts | 240° |
| 2026-04-21 22:16 | -34.70792 | -56.16414 | 21231 ft | 394 kts | 242° |
| 2026-04-21 22:16 | -34.72526 | -56.20350 | 21737 ft | 396 kts | 244° |
| 2026-04-21 22:16 | -34.73771 | -56.23372 | 21911 ft | 402 kts | 245° |
| 2026-04-21 22:17 | -34.75008 | -56.26464 | 21990 ft | 408 kts | 245° |
| 2026-04-21 22:17 | -34.76236 | -56.29579 | 22002 ft | 415 kts | 246° |
| 2026-04-21 22:17 | -34.77074 | -56.31726 | 22000 ft | 419 kts | 246° |
| 2026-04-21 22:17 | -34.78736 | -56.36008 | 21998 ft | 423 kts | 246° |
| 2026-04-21 22:18 | -34.79563 | -56.38147 | 21997 ft | 424 kts | 246° |
| 2026-04-21 22:18 | -34.80823 | -56.41413 | 21996 ft | 425 kts | 246° |
| 2026-04-21 22:18 | -34.82491 | -56.45754 | 21996 ft | 427 kts | 246° |
| 2026-04-21 22:18 | -34.83329 | -56.47937 | 21996 ft | 427 kts | 246° |
| 2026-04-21 22:19 | -34.85009 | -56.52325 | 21996 ft | 428 kts | 246° |
| 2026-04-21 22:19 | -34.86274 | -56.55636 | 21996 ft | 428 kts | 246° |
| 2026-04-21 22:19 | -34.87098 | -56.57797 | 21996 ft | 428 kts | 246° |
| 2026-04-21 22:19 | -34.88769 | -56.62186 | 21996 ft | 428 kts | 246° |
| 2026-04-21 22:20 | -34.90023 | -56.65488 | 21996 ft | 429 kts | 246° |
| 2026-04-21 22:20 | -34.91281 | -56.68803 | 21996 ft | 429 kts | 246° |
| 2026-04-21 22:20 | -34.92523 | -56.72086 | 21996 ft | 429 kts | 246° |
| 2026-04-21 22:20 | -34.93365 | -56.74313 | 21996 ft | 429 kts | 246° |
| 2026-04-21 22:21 | -34.94611 | -56.77615 | 21996 ft | 429 kts | 246° |
| 2026-04-21 22:21 | -34.95528 | -56.80048 | 21996 ft | 429 kts | 246° |
| 2026-04-21 22:21 | -34.96673 | -56.83399 | 21995 ft | 428 kts | 252° |
| 2026-04-21 22:21 | -34.97420 | -56.86905 | 21997 ft | 427 kts | 259° |
| 2026-04-21 22:22 | -34.97866 | -56.90473 | 21998 ft | 427 kts | 264° |
| 2026-04-21 22:22 | -34.98122 | -56.94078 | 21997 ft | 427 kts | 266° |
| 2026-04-21 22:22 | -34.98258 | -56.97679 | 21997 ft | 427 kts | 268° |
| 2026-04-21 22:22 | -34.98321 | -57.01312 | 21996 ft | 427 kts | 269° |
| 2026-04-21 22:23 | -34.98335 | -57.03367 | 21996 ft | 427 kts | 270° |
| 2026-04-21 22:23 | -34.98338 | -57.05877 | 21996 ft | 427 kts | 270° |
| 2026-04-21 22:23 | -34.98324 | -57.09512 | 21996 ft | 427 kts | 270° |
| 2026-04-21 22:24 | -34.98299 | -57.13113 | 21996 ft | 427 kts | 270° |
| 2026-04-21 22:24 | -34.98267 | -57.16775 | 21996 ft | 427 kts | 270° |
| 2026-04-21 22:24 | -34.98232 | -57.20378 | 21996 ft | 427 kts | 271° |
| 2026-04-21 22:24 | -34.97999 | -57.23996 | 21994 ft | 427 kts | 279° |
| 2026-04-21 22:25 | -34.97249 | -57.27472 | 21999 ft | 428 kts | 286° |
| 2026-04-21 22:25 | -34.96397 | -57.30941 | 21998 ft | 428 kts | 285° |
| 2026-04-21 22:25 | -34.95548 | -57.34463 | 21997 ft | 428 kts | 285° |
| 2026-04-21 22:25 | -34.94723 | -57.37912 | 21996 ft | 428 kts | 285° |
| 2026-04-21 22:26 | -34.93896 | -57.41384 | 21994 ft | 419 kts | 285° |
| 2026-04-21 22:26 | -34.93096 | -57.44741 | 21991 ft | 402 kts | 285° |
| 2026-04-21 22:26 | -34.92327 | -57.47955 | 21991 ft | 392 kts | 285° |
| 2026-04-21 22:26 | -34.91565 | -57.51139 | 21755 ft | 392 kts | 285° |
| 2026-04-21 22:27 | -34.90808 | -57.54297 | 21328 ft | 388 kts | 285° |
| 2026-04-21 22:27 | -34.90056 | -57.57426 | 20870 ft | 379 kts | 285° |
| 2026-04-21 22:27 | -34.89327 | -57.60445 | 20370 ft | 359 kts | 285° |
| 2026-04-21 22:27 | -34.88643 | -57.63263 | 19864 ft | 338 kts | 285° |
| 2026-04-21 22:28 | -34.87998 | -57.65905 | 19363 ft | 321 kts | 285° |
| 2026-04-21 22:28 | -34.87361 | -57.68503 | 18856 ft | 309 kts | 285° |
| 2026-04-21 22:28 | -34.86756 | -57.70959 | 18356 ft | 300 kts | 285° |
| 2026-04-21 22:28 | -34.86165 | -57.73352 | 17855 ft | 292 kts | 285° |
| 2026-04-21 22:29 | -34.85579 | -57.75717 | 17343 ft | 284 kts | 285° |
| 2026-04-21 22:29 | -34.85021 | -57.77965 | 16845 ft | 277 kts | 285° |
| 2026-04-21 22:29 | -34.84466 | -57.80194 | 16341 ft | 271 kts | 285° |
| 2026-04-21 22:29 | -34.83921 | -57.82378 | 15839 ft | 267 kts | 285° |
| 2026-04-21 22:30 | -34.83382 | -57.84535 | 15334 ft | 263 kts | 285° |
| 2026-04-21 22:30 | -34.82852 | -57.86652 | 14833 ft | 260 kts | 285° |
| 2026-04-21 22:30 | -34.82326 | -57.88750 | 14331 ft | 257 kts | 285° |
| 2026-04-21 22:30 | -34.81808 | -57.90814 | 13833 ft | 255 kts | 285° |
| 2026-04-21 22:31 | -34.81293 | -57.92864 | 13334 ft | 253 kts | 285° |
| 2026-04-21 22:31 | -34.80781 | -57.94900 | 12816 ft | 251 kts | 285° |
| 2026-04-21 22:31 | -34.80268 | -57.96937 | 12286 ft | 249 kts | 285° |
| 2026-04-21 22:31 | -34.79767 | -57.98926 | 11765 ft | 247 kts | 285° |
| 2026-04-21 22:32 | -34.79263 | -58.00922 | 11239 ft | 246 kts | 285° |
| 2026-04-21 22:32 | -34.78758 | -58.02924 | 10708 ft | 244 kts | 285° |
| 2026-04-21 22:32 | -34.78259 | -58.04897 | 10183 ft | 243 kts | 285° |
| 2026-04-21 22:32 | -34.77760 | -58.06872 | 9643 ft | 245 kts | 285° |
| 2026-04-21 22:33 | -34.77258 | -58.08862 | 9073 ft | 249 kts | 285° |
| 2026-04-21 22:33 | -34.76748 | -58.10883 | 8517 ft | 252 kts | 286° |
| 2026-04-21 22:33 | -34.76229 | -58.12940 | 7924 ft | 258 kts | 286° |
| 2026-04-21 22:33 | -34.75699 | -58.15023 | 7353 ft | 258 kts | 286° |
| 2026-04-21 22:34 | -34.75172 | -58.17113 | 6845 ft | 257 kts | 286° |
| 2026-04-21 22:34 | -34.74659 | -58.19142 | 6729 ft | 246 kts | 286° |
| 2026-04-21 22:34 | -34.74161 | -58.21109 | 6706 ft | 247 kts | 286° |
| 2026-04-21 22:34 | -34.73640 | -58.23170 | 6692 ft | 261 kts | 286° |
| 2026-04-21 22:35 | -34.73101 | -58.25309 | 6675 ft | 272 kts | 286° |
| 2026-04-21 22:35 | -34.72541 | -58.27537 | 6653 ft | 277 kts | 286° |
| 2026-04-21 22:35 | -34.71968 | -58.29812 | 6630 ft | 280 kts | 286° |
| 2026-04-21 22:35 | -34.71397 | -58.32083 | 6606 ft | 282 kts | 286° |
| 2026-04-21 22:36 | -34.70250 | -58.36631 | 6552 ft | 283 kts | 286° |
| 2026-04-21 22:36 | -34.69672 | -58.38927 | 6428 ft | 282 kts | 286° |
| 2026-04-21 22:36 | -34.69110 | -58.41176 | 6294 ft | 275 kts | 286° |
| 2026-04-21 22:37 | -34.68567 | -58.43375 | 6141 ft | 270 kts | 286° |
| 2026-04-21 22:37 | -34.68038 | -58.45553 | 5988 ft | 267 kts | 286° |
| 2026-04-21 22:37 | -34.67519 | -58.47726 | 5861 ft | 264 kts | 286° |
| 2026-04-21 22:37 | -34.67023 | -58.49836 | 5836 ft | 261 kts | 286° |
| 2026-04-21 22:38 | -34.66522 | -58.51973 | 5813 ft | 265 kts | 286° |
| 2026-04-21 22:38 | -34.66017 | -58.54140 | 5791 ft | 269 kts | 286° |
| 2026-04-21 22:38 | -34.65505 | -58.56335 | 5768 ft | 271 kts | 286° |
| 2026-04-21 22:38 | -34.64989 | -58.58552 | 5743 ft | 272 kts | 286° |
| 2026-04-21 22:39 | -34.64419 | -58.60711 | 5744 ft | 265 kts | 291° |
| 2026-04-21 22:39 | -34.63714 | -58.62713 | 5681 ft | 255 kts | 294° |
| 2026-04-21 22:39 | -34.62973 | -58.64624 | 5646 ft | 240 kts | 295° |
| 2026-04-21 22:39 | -34.62267 | -58.66388 | 5609 ft | 227 kts | 296° |
| 2026-04-21 22:40 | -34.61593 | -58.68059 | 5571 ft | 215 kts | 296° |
| 2026-04-21 22:40 | -34.60947 | -58.69657 | 5531 ft | 207 kts | 296° |
| 2026-04-21 22:40 | -34.60325 | -58.71200 | 5500 ft | 202 kts | 296° |
| 2026-04-21 22:40 | -34.59701 | -58.72721 | 5498 ft | 200 kts | 298° |
| 2026-04-21 22:41 | -34.58911 | -58.74111 | 5496 ft | 200 kts | 312° |
| 2026-04-21 22:41 | -34.57852 | -58.75207 | 5508 ft | 201 kts | 320° |
| 2026-04-21 22:41 | -34.56751 | -58.76262 | 5502 ft | 203 kts | 322° |
| 2026-04-21 22:41 | -34.55509 | -58.77061 | 5495 ft | 205 kts | 340° |
| 2026-04-21 22:42 | -34.54083 | -58.77305 | 5455 ft | 211 kts | 357° |
| 2026-04-21 22:42 | -34.52602 | -58.77078 | 5359 ft | 215 kts | 11° |
| 2026-04-21 22:42 | -34.51207 | -58.76381 | 5226 ft | 220 kts | 33° |
| 2026-04-21 22:42 | -34.50215 | -58.74998 | 5119 ft | 221 kts | 54° |
| 2026-04-21 22:43 | -34.49420 | -58.73405 | 4950 ft | 219 kts | 56° |
| 2026-04-21 22:43 | -34.48629 | -58.71821 | 4748 ft | 217 kts | 56° |
| 2026-04-21 22:43 | -34.47850 | -58.70274 | 4547 ft | 215 kts | 56° |
| 2026-04-21 22:43 | -34.47090 | -58.68724 | 4303 ft | 216 kts | 58° |
| 2026-04-21 22:44 | -34.46340 | -58.67148 | 4056 ft | 216 kts | 59° |
| 2026-04-21 22:44 | -34.45650 | -58.65525 | 3806 ft | 217 kts | 65° |
| 2026-04-21 22:44 | -34.45177 | -58.63802 | 3559 ft | 218 kts | 76° |
| 2026-04-21 22:44 | -34.44997 | -58.61992 | 3453 ft | 211 kts | 90° |
| 2026-04-21 22:45 | -34.45282 | -58.60295 | 3385 ft | 202 kts | 112° |
| 2026-04-21 22:45 | -34.45966 | -58.58847 | 3339 ft | 195 kts | 122° |
| 2026-04-21 22:45 | -34.46720 | -58.57471 | 3184 ft | 197 kts | 125° |
| 2026-04-21 22:45 | -34.47533 | -58.56112 | 2907 ft | 197 kts | 126° |
| 2026-04-21 22:46 | -34.48304 | -58.54825 | 2663 ft | 184 kts | 125° |
| 2026-04-21 22:46 | -34.49034 | -58.53583 | 2541 ft | 178 kts | 125° |
| 2026-04-21 22:46 | -34.49720 | -58.52408 | 2365 ft | 167 kts | 126° |
| 2026-04-21 22:46 | -34.50400 | -58.51291 | 2074 ft | 162 kts | 127° |
| 2026-04-21 22:47 | -34.51050 | -58.50198 | 1788 ft | 159 kts | 125° |
| 2026-04-21 22:47 | -34.51683 | -58.49096 | 1499 ft | 158 kts | 125° |
| 2026-04-21 22:47 | -34.52317 | -58.48009 | 1222 ft | 156 kts | 125° |
| 2026-04-21 22:47 | -34.52932 | -58.46934 | 961 ft | 154 kts | 124° |
| 2026-04-21 22:48 | -34.53529 | -58.45883 | 722 ft | 149 kts | 124° |
| 2026-04-21 22:48 | -34.54090 | -58.44860 | 519 ft | 144 kts | 123° |
| 2026-04-21 22:48 | -34.54640 | -58.43862 | 287 ft | 141 kts | 124° |
| 2026-04-21 22:48 | -34.55180 | -58.42895 | 81 ft | 135 kts | 124° |
| 2026-04-21 22:49 | -34.55679 | -58.42013 | 27 ft | 112 kts | 124° |
| 2026-04-21 22:49 | -34.55974 | -58.41486 | 27 ft | 34 kts | 124° |
| 2026-04-21 22:49 | -34.56012 | -58.41411 | 27 ft | 6 kts | 106° |
| 2026-04-21 22:49 | -34.55997 | -58.41360 | 27 ft | 5 kts | 44° |
| 2026-04-21 22:50 | -34.55986 | -58.41351 | 27 ft | 0 kts | 33° |
| 2026-04-21 22:51 | -34.55984 | -58.41349 | 27 ft | 1 kts | 33° |
| 2026-04-21 22:51 | -34.55982 | -58.41348 | 27 ft | 0 kts | 33° |
| 2026-04-21 22:51 | -34.55982 | -58.41347 | 27 ft | 0 kts | 33° |
| 2026-04-21 22:52 | -34.55981 | -58.41347 | 27 ft | 0 kts | 33° |
| 2026-04-21 22:52 | -34.55977 | -58.41343 | 27 ft | 2 kts | 33° |
| 2026-04-21 22:52 | -34.55962 | -58.41332 | 27 ft | 4 kts | 33° |
| 2026-04-21 22:53 | -34.55937 | -58.41315 | 27 ft | 5 kts | 10° |
| 2026-04-21 22:53 | -34.55909 | -58.41328 | 27 ft | 4 kts | 343° |
| 2026-04-21 22:53 | -34.55882 | -58.41320 | 27 ft | 4 kts | 27° |
| 2026-04-21 22:53 | -34.55852 | -58.41299 | 27 ft | 6 kts | 31° |
| 2026-04-21 22:54 | -34.55824 | -58.41302 | 27 ft | 4 kts | 317° |
| 2026-04-21 22:54 | -34.55804 | -58.41335 | 27 ft | 5 kts | 303° |
| 2026-04-21 22:54 | -34.55790 | -58.41362 | 27 ft | 6 kts | 303° |
| 2026-04-21 22:54 | -34.55765 | -58.41408 | 27 ft | 6 kts | 303° |
| 2026-04-21 22:55 | -34.55738 | -58.41416 | 27 ft | 4 kts | 21° |
| 2026-04-21 22:55 | -34.55718 | -58.41406 | 27 ft | 0 kts | 22° |